Time;durP1;ratioP1;P1;durP2;ratioP2;P2;SDS_P1;SDS_P2;PMS_P1;PMS_P2;Temp;Humidity;BMP_temperature;BMP_pressure;BME280_temperature;BME280_humidity;BME280_pressure;Samples;Min_cycle;Max_cycle;Signal;HPM_P1;HPM_P2
2024/04/20 00:01:10;;;;;;;13.00;4.70;;;;;;;6.85;nan;101419.47;5884480;22;19995;-96
2024/04/20 00:03:36;;;;;;;6.57;3.28;;;;;;;7.02;nan;101427.59;5227177;27;20027;-96
2024/04/20 00:06:07;;;;;;;9.45;3.42;;;;;;;6.91;nan;101414.22;5231886;27;20003;-95
2024/04/20 00:08:32;;;;;;;13.05;3.53;;;;;;;6.82;nan;101417.84;5229451;27;20004;-95
2024/04/20 00:11:08;;;;;;;7.60;3.08;;;;;;;6.87;nan;101407.47;5230659;27;20000;-96
2024/04/20 00:18:44;;;;;;;10.60;3.50;;;;;;;6.83;nan;101418.72;6091848;21;20242;-95
2024/04/20 00:21:10;;;;;;;7.50;2.30;;;;;;;6.84;nan;101428.91;5234552;27;19996;-95
2024/04/20 00:23:36;;;;;;;9.13;2.80;;;;;;;6.71;nan;101426.72;5233891;27;19998;-96
2024/04/20 00:28:37;;;;;;;6.82;2.15;;;;;;;6.66;nan;101429.41;5340183;22;20051;-95
2024/04/20 00:31:02;;;;;;;12.90;2.80;;;;;;;6.57;nan;101439.88;5231794;27;19992;-95
2024/04/20 00:33:35;;;;;;;5.95;2.22;;;;;;;6.48;nan;101440.09;5232751;27;20011;-95
2024/04/20 00:36:01;;;;;;;5.65;2.88;;;;;;;6.42;nan;101431.69;5233494;27;19988;-94
2024/04/20 00:38:26;;;;;;;9.70;2.13;;;;;;;6.41;nan;101434.28;5233591;27;20052;-96
2024/04/20 00:40:56;;;;;;;8.20;2.00;;;;;;;6.41;nan;101445.41;5234841;27;19999;-95
2024/04/20 00:45:57;;;;;;;3.90;1.60;;;;;;;6.37;nan;101443.78;5678079;22;20034;-96
2024/04/20 00:48:25;;;;;;;8.30;1.60;;;;;;;6.31;nan;101454.16;5234800;27;20025;-96
2024/04/20 00:53:28;;;;;;;5.82;1.20;;;;;;;6.18;nan;101466.44;5239275;22;20078;-95
2024/04/20 00:55:54;;;;;;;5.45;1.50;;;;;;;6.08;nan;101464.94;5233059;27;20039;-95
2024/04/20 00:58:19;;;;;;;8.90;1.27;;;;;;;6.15;nan;101478.47;5233278;27;19999;-95
2024/04/20 01:00:45;;;;;;;4.63;1.48;;;;;;;5.99;nan;101470.28;5233830;27;19996;-96
2024/04/20 01:03:12;;;;;;;10.35;2.60;;;;;;;5.93;nan;101468.66;5231773;27;20016;-96
2024/04/20 01:05:38;;;;;;;5.10;1.48;;;;;;;5.90;nan;101468.75;5231331;27;20024;-96
2024/04/20 01:08:15;;;;;;;8.73;1.35;;;;;;;5.87;nan;101478.19;5233254;27;19996;-96
2024/04/20 01:10:41;;;;;;;3.95;1.50;;;;;;;5.79;nan;101480.91;5232770;27;20004;-95
2024/04/20 01:13:07;;;;;;;5.50;1.35;;;;;;;5.75;nan;101486.97;5232174;27;20000;-96
2024/04/20 01:15:34;;;;;;;5.32;1.52;;;;;;;5.68;nan;101485.41;5230555;27;20020;-96
2024/04/20 01:18:00;;;;;;;5.13;1.30;;;;;;;5.66;nan;101485.47;5233322;27;19999;-94
2024/04/20 02:02:09;;;;;;;5.93;1.08;;;;;;;5.65;nan;101529.84;5626914;21;20012;-94
2024/04/20 02:04:35;;;;;;;8.65;1.20;;;;;;;5.75;nan;101546.72;5230753;27;19999;-95
2024/04/20 02:07:00;;;;;;;4.80;0.95;;;;;;;5.65;nan;101549.50;5231019;27;20003;-95
2024/04/20 02:09:26;;;;;;;7.15;1.52;;;;;;;5.42;nan;101532.88;5231603;27;20010;-96
2024/04/20 02:11:51;;;;;;;3.28;0.82;;;;;;;5.34;nan;101529.59;5232448;27;19995;-96
2024/04/20 02:14:18;;;;;;;6.13;1.60;;;;;;;5.16;nan;101535.88;5234844;27;20014;-95
2024/04/20 02:16:43;;;;;;;5.65;1.10;;;;;;;5.27;nan;101549.34;5233061;27;20007;-95
2024/04/20 02:21:47;;;;;;;2.70;0.90;;;;;;;5.11;nan;101559.00;5440848;21;20040;-96
2024/04/20 02:24:13;;;;;;;3.53;1.10;;;;;;;5.12;nan;101549.59;5231876;27;20015;-96
2024/04/20 02:26:39;;;;;;;10.45;2.65;;;;;;;4.95;nan;101542.22;5229145;27;20055;-95
2024/04/20 02:29:04;;;;;;;8.02;1.27;;;;;;;4.89;nan;101550.81;5227828;27;20015;-95
2024/04/20 02:31:30;;;;;;;5.13;1.35;;;;;;;4.86;nan;101547.47;5231245;27;20004;-96
2024/04/20 02:33:56;;;;;;;6.18;0.90;;;;;;;4.68;nan;101549.47;5234028;27;20007;-96
2024/04/20 02:36:25;;;;;;;4.90;1.17;;;;;;;4.65;nan;101553.75;5234385;27;20011;-94
2024/04/20 02:38:51;;;;;;;4.93;1.20;;;;;;;4.79;nan;101563.78;5232044;27;20036;-95
2024/04/20 02:41:16;;;;;;;4.97;1.40;;;;;;;4.71;nan;101559.63;5234185;27;19996;-96
2024/04/20 02:43:42;;;;;;;4.50;1.00;;;;;;;4.58;nan;101557.28;5233112;27;20014;-96
2024/04/20 02:46:08;;;;;;;3.85;0.90;;;;;;;4.41;nan;101554.97;5232964;27;20011;-96
2024/04/20 02:48:34;;;;;;;6.90;1.67;;;;;;;4.40;nan;101563.50;5231121;27;20000;-95
2024/04/20 02:51:01;;;;;;;4.80;1.02;;;;;;;4.37;nan;101561.00;5278278;21;20020;-94
2024/04/20 02:53:27;;;;;;;4.70;1.23;;;;;;;4.41;nan;101565.19;5361324;21;20072;-96
2024/04/20 02:55:53;;;;;;;6.32;1.10;;;;;;;4.39;nan;101592.47;5231030;27;20031;-95
2024/04/20 02:58:19;;;;;;;8.15;1.98;;;;;;;4.27;nan;101573.06;5227159;27;20004;-95
2024/04/20 03:00:58;;;;;;;7.90;1.35;;;;;;;4.40;nan;101583.94;5227479;27;20003;-93
2024/04/20 03:03:29;;;;;;;5.25;1.52;;;;;;;4.31;nan;101584.06;5227852;27;20011;-96
2024/04/20 03:05:55;;;;;;;6.63;1.63;;;;;;;4.09;nan;101579.22;5226778;27;20007;-96
2024/04/20 03:08:22;;;;;;;3.92;1.08;;;;;;;4.07;nan;101601.38;5349521;21;20027;-94
2024/04/20 03:10:48;;;;;;;5.97;0.93;;;;;;;3.88;nan;101587.13;5226756;27;19991;-95
2024/04/20 03:13:14;;;;;;;4.57;0.90;;;;;;;3.64;nan;101592.50;5226817;27;20007;-96
2024/04/20 03:15:40;;;;;;;3.55;0.82;;;;;;;3.68;nan;101595.84;5230158;27;20012;-96
2024/04/20 03:18:35;;;;;;;5.00;1.55;;;;;;;3.78;nan;101617.91;5473858;21;20019;-95
2024/04/20 03:21:09;;;;;;;5.43;1.00;;;;;;;3.68;nan;101602.66;5411123;21;20015;-96
2024/04/20 03:23:40;;;;;;;5.35;1.45;;;;;;;3.65;nan;101616.31;5555980;21;20008;-96
2024/04/20 03:26:06;;;;;;;6.68;1.50;;;;;;;3.65;nan;101613.75;5231663;27;20016;-95
2024/04/20 03:28:32;;;;;;;4.18;1.23;;;;;;;3.54;nan;101607.94;5232279;27;20008;-96
2024/04/20 03:30:57;;;;;;;7.97;1.70;;;;;;;3.48;nan;101603.72;5232064;27;20019;-96
2024/04/20 03:33:28;;;;;;;6.68;1.10;;;;;;;3.39;nan;101612.31;5231714;27;19999;-96
2024/04/20 03:35:58;;;;;;;11.27;1.27;;;;;;;3.41;nan;101625.91;5231491;27;19999;-96
2024/04/20 03:38:26;;;;;;;7.35;2.50;;;;;;;3.37;nan;101619.13;5231407;27;20040;-96
2024/04/20 03:40:52;;;;;;;6.70;1.77;;;;;;;3.18;nan;101607.38;5231459;27;20000;-96
2024/04/20 03:43:17;;;;;;;8.98;1.60;;;;;;;3.24;nan;101626.88;5230849;27;20000;-96
2024/04/20 03:45:53;;;;;;;5.18;0.90;;;;;;;3.21;nan;101617.56;5230415;27;19991;-96
2024/04/20 03:48:20;;;;;;;4.18;1.33;;;;;;;3.18;nan;101622.69;5230083;27;20040;-95
2024/04/20 03:50:56;;;;;;;6.55;1.20;;;;;;;3.17;nan;101621.84;5229284;27;20014;-96
2024/04/20 03:53:25;;;;;;;4.40;1.50;;;;;;;3.28;nan;101644.72;5226125;27;20009;-95
2024/04/20 03:55:52;;;;;;;9.07;1.70;;;;;;;3.22;nan;101649.88;5226741;27;20047;-95
2024/04/20 03:58:17;;;;;;;5.65;1.10;;;;;;;3.11;nan;101636.34;5220531;27;20004;-95
2024/04/20 04:00:43;;;;;;;8.27;1.40;;;;;;;2.80;nan;101628.91;5228018;27;20343;-94
2024/04/20 04:03:14;;;;;;;6.75;1.38;;;;;;;2.95;nan;101654.31;5228039;27;20338;-94
2024/04/20 04:05:43;;;;;;;8.45;1.65;;;;;;;2.61;nan;101637.50;5227881;27;19996;-96
2024/04/20 04:08:08;;;;;;;9.50;1.20;;;;;;;2.55;nan;101646.88;5224877;27;20011;-95
2024/04/20 04:10:34;;;;;;;4.85;1.30;;;;;;;2.49;nan;101631.63;5223290;27;20004;-94
2024/04/20 04:13:04;;;;;;;4.93;1.27;;;;;;;2.56;nan;101643.50;5223058;27;20013;-96
2024/04/20 04:15:37;;;;;;;7.25;1.90;;;;;;;2.85;nan;101645.00;5226149;27;20008;-94
2024/04/20 04:18:02;;;;;;;4.70;1.25;;;;;;;2.59;nan;101647.72;5222474;27;20012;-94
2024/04/20 04:20:28;;;;;;;6.00;1.20;;;;;;;2.60;nan;101658.75;5221566;27;20007;-95
2024/04/20 04:22:53;;;;;;;6.38;1.35;;;;;;;2.52;nan;101652.00;5221997;27;21695;-96
2024/04/20 04:25:19;;;;;;;8.20;1.50;;;;;;;2.42;nan;101650.34;5221522;27;19996;-95
2024/04/20 04:27:45;;;;;;;8.35;1.20;;;;;;;2.18;nan;101661.47;5223174;27;20003;-96
2024/04/20 04:30:14;;;;;;;6.03;1.00;;;;;;;2.16;nan;101654.69;5226547;27;20003;-95
2024/04/20 04:32:39;;;;;;;6.00;1.25;;;;;;;2.24;nan;101670.78;5229435;27;19996;-95
2024/04/20 04:35:05;;;;;;;3.20;1.10;;;;;;;2.14;nan;101659.78;5222019;27;19999;-95
2024/04/20 04:37:31;;;;;;;8.00;1.35;;;;;;;2.07;nan;101660.63;5226073;27;20056;-96
2024/04/20 04:39:58;;;;;;;5.75;1.13;;;;;;;2.08;nan;101660.66;5229943;27;20000;-96
2024/04/20 04:42:29;;;;;;;6.30;0.75;;;;;;;2.24;nan;101670.78;5231909;27;19992;-96
2024/04/20 04:45:11;;;;;;;7.78;1.45;;;;;;;2.16;nan;101677.59;5233421;27;19998;-96
2024/04/20 04:47:44;;;;;;;5.72;1.30;;;;;;;2.07;nan;101669.16;5229742;27;20000;-95
2024/04/20 04:50:10;;;;;;;6.78;1.30;;;;;;;2.07;nan;101670.81;5226764;27;20067;-95
2024/04/20 04:52:35;;;;;;;6.38;1.23;;;;;;;2.09;nan;101697.97;5225263;27;20018;-96
2024/04/20 04:55:01;;;;;;;12.93;1.20;;;;;;;1.99;nan;101680.19;5198325;27;20011;-95
2024/04/20 04:57:27;;;;;;;4.22;1.50;;;;;;;2.02;nan;101685.28;5227521;27;19996;-94
2024/04/20 04:59:53;;;;;;;5.80;1.08;;;;;;;2.04;nan;101694.59;5223846;27;19987;-95
2024/04/20 05:02:18;;;;;;;3.20;1.25;;;;;;;2.02;nan;101696.28;5226501;27;19996;-96
2024/04/20 05:04:44;;;;;;;6.38;1.45;;;;;;;2.02;nan;101701.38;5225682;27;20074;-94
2024/04/20 05:07:15;;;;;;;8.25;1.20;;;;;;;1.97;nan;101705.66;5225778;27;19996;-95
2024/04/20 05:09:46;;;;;;;;;;;;;;;2.13;nan;101725.16;5229728;27;20415;-96
2024/04/20 05:12:22;;;;;;;10.07;1.52;;;;;;;2.00;nan;101705.66;5232626;27;19937;-96
2024/04/20 05:15:04;;;;;;;8.25;1.45;;;;;;;1.88;nan;101721.78;5234686;27;19999;-96
2024/04/20 05:17:34;;;;;;;6.78;1.10;;;;;;;1.96;nan;101729.41;5234544;27;20015;-96
2024/04/20 05:20:12;;;;;;;5.68;1.45;;;;;;;1.91;nan;101723.50;5231520;27;19988;-95
2024/04/20 05:22:41;;;;;;;10.32;1.42;;;;;;;2.00;nan;101726.03;5230443;27;20455;-94
2024/04/20 05:25:07;;;;;;;7.85;1.75;;;;;;;2.10;nan;101744.69;5222518;27;20006;-95
2024/04/20 05:27:32;;;;;;;4.22;1.23;;;;;;;2.00;nan;101732.78;5195217;27;20010;-95
2024/04/20 05:29:59;;;;;;;9.52;2.90;;;;;;;2.07;nan;101739.59;5225320;27;20016;-95
2024/04/20 05:32:25;;;;;;;3.60;1.25;;;;;;;2.00;nan;101738.75;5225451;27;19995;-95
2024/04/20 05:34:51;;;;;;;7.30;1.20;;;;;;;2.06;nan;101764.22;5224139;27;20044;-95
2024/04/20 05:37:17;;;;;;;4.40;1.23;;;;;;;1.92;nan;101745.53;5222242;27;20007;-95
2024/04/20 05:39:46;;;;;;;5.03;1.33;;;;;;;1.89;nan;101740.47;5223068;27;19996;-95
2024/04/20 05:42:11;;;;;;;4.63;1.35;;;;;;;1.98;nan;101750.66;5223101;27;20439;-93
2024/04/20 05:44:37;;;;;;;10.18;1.25;;;;;;;2.00;nan;101754.03;5222839;27;19995;-94
2024/04/20 05:47:05;;;;;;;6.38;1.60;;;;;;;2.17;nan;101776.06;5225308;27;20458;-95
2024/04/20 05:49:31;;;;;;;9.43;1.63;;;;;;;2.21;nan;101767.59;5223925;27;20003;-96
2024/04/20 05:51:58;;;;;;;7.70;1.85;;;;;;;2.20;nan;101756.56;5229384;27;20071;-95
2024/04/20 05:54:24;;;;;;;12.43;2.47;;;;;;;2.37;nan;101774.38;5200941;27;20004;-95
2024/04/20 05:56:50;;;;;;;15.65;2.03;;;;;;;2.21;nan;101763.34;5225599;27;19999;-94
2024/04/20 05:59:16;;;;;;;10.88;3.30;;;;;;;2.31;nan;101759.91;5222968;27;20093;-94
2024/04/20 06:01:41;;;;;;;11.00;2.15;;;;;;;2.25;nan;101770.13;5224223;27;20013;-95
2024/04/20 06:04:07;;;;;;;14.85;2.65;;;;;;;2.38;nan;101781.16;5225597;27;19999;-94
2024/04/20 06:06:33;;;;;;;15.25;2.20;;;;;;;2.25;nan;101770.13;5220833;27;20453;-95
2024/04/20 06:08:59;;;;;;;8.15;1.90;;;;;;;2.43;nan;101768.41;5222156;27;20010;-95
2024/04/20 06:11:25;;;;;;;6.20;1.33;;;;;;;2.48;nan;101772.63;5224610;27;19995;-96
2024/04/20 06:13:51;;;;;;;9.63;2.15;;;;;;;2.52;nan;101774.31;5200014;27;20000;-95
2024/04/20 06:16:19;;;;;;;14.70;2.88;;;;;;;2.55;nan;101776.84;5227056;27;20005;-95
2024/04/20 06:18:45;;;;;;;9.93;2.75;;;;;;;2.79;nan;101793.78;5225327;27;20008;-95
2024/04/20 06:21:11;;;;;;;13.48;3.40;;;;;;;2.76;nan;101778.50;5224536;27;20007;-94
2024/04/20 06:23:37;;;;;;;13.27;2.70;;;;;;;2.78;nan;101773.41;5221161;27;20004;-94
2024/04/20 06:26:02;;;;;;;8.75;2.47;;;;;;;2.95;nan;101797.13;5222203;27;20315;-95
2024/04/20 06:28:28;;;;;;;5.53;2.25;;;;;;;3.02;nan;101799.63;5220884;27;20014;-96
2024/04/20 06:30:55;;;;;;;11.55;2.00;;;;;;;3.00;nan;101792.84;5222176;27;20011;-94
2024/04/20 06:33:23;;;;;;;8.73;2.08;;;;;;;3.19;nan;101805.50;5223480;27;20011;-96
2024/04/20 06:35:58;;;;;;;4.78;1.63;;;;;;;3.27;nan;101791.03;5229753;27;19992;-96
2024/04/20 06:38:23;;;;;;;5.13;1.52;;;;;;;3.72;nan;101806.91;5226950;27;19996;-95
2024/04/20 06:40:49;;;;;;;4.55;1.73;;;;;;;6.37;nan;101792.50;5223344;27;19996;-96
2024/04/20 06:43:15;;;;;;;4.60;1.77;;;;;;;8.44;nan;101789.63;5224479;27;20000;-95
2024/04/20 06:45:44;;;;;;;9.23;2.90;;;;;;;9.92;nan;101798.94;5245143;21;20011;-95
2024/04/20 06:50:45;;;;;;;7.15;1.55;;;;;;;11.93;nan;101807.06;5229631;27;20011;-96
2024/04/20 06:53:11;;;;;;;8.02;2.13;;;;;;;12.33;nan;101805.38;5234242;27;20043;-96
2024/04/20 08:26:25;;;;;;;7.00;1.30;;;;;;;17.71;nan;101884.19;6415142;22;20239;31
2024/04/20 10:13:15;;;;;;;5.18;1.17;;;;;;;17.91;nan;101869.84;6296083;22;20006;-96
2024/04/20 10:26:34;;;;;;;5.47;1.50;;;;;;;17.31;nan;101872.81;5309493;22;20004;-96
2024/04/20 12:49:24;;;;;;;3.75;0.90;;;;;;;21.64;nan;101852.13;4882798;21;20179;-92
2024/04/20 12:57:07;;;;;;;3.17;0.93;;;;;;;22.53;nan;101857.88;5881522;21;20026;-96
2024/04/20 21:05:41;;;;;;;10.57;3.17;;;;;;;8.91;nan;101846.66;4930720;22;20157;-93
2024/04/20 21:08:06;;;;;;;5.72;2.88;;;;;;;8.87;nan;101837.31;5335456;22;20083;-94
2024/04/20 21:10:32;;;;;;;7.47;2.50;;;;;;;8.92;nan;101834.63;5202995;27;20057;-95
2024/04/20 21:12:57;;;;;;;4.75;2.55;;;;;;;8.86;nan;101835.66;5201003;27;20053;-95
2024/04/20 21:15:23;;;;;;;8.43;2.90;;;;;;;8.82;nan;101830.63;5200708;27;20007;-95
2024/04/20 21:20:24;;;;;;;8.45;3.55;;;;;;;8.92;nan;101832.06;5750967;22;20000;-95
2024/04/20 21:22:49;;;;;;;11.15;3.15;;;;;;;8.86;nan;101838.22;5201263;27;20041;-94
2024/04/20 21:33:03;;;;;;;8.43;3.10;;;;;;;8.79;nan;101841.84;5298354;22;20028;-96
2024/04/20 21:35:28;;;;;;;6.03;2.85;;;;;;;8.76;nan;101823.94;5198133;27;19996;-96
2024/04/20 21:37:54;;;;;;;8.75;3.60;;;;;;;8.84;nan;101829.69;5199364;27;20048;-96
2024/04/20 21:40:19;;;;;;;9.00;3.28;;;;;;;8.67;nan;101816.44;5200305;27;20044;-96
2024/04/20 21:42:45;;;;;;;9.25;3.45;;;;;;;8.60;nan;101825.22;5198296;27;20016;-96
2024/04/20 21:45:10;;;;;;;6.18;2.85;;;;;;;8.61;nan;101821.75;5200137;27;20063;-95
2024/04/20 21:47:36;;;;;;;7.47;2.72;;;;;;;8.46;nan;101828.16;5197977;27;20004;-95
2024/04/20 21:50:02;;;;;;;5.03;2.58;;;;;;;8.47;nan;101825.56;5198610;27;20000;-96
